createdAt,value
2023-02-24T00:02:00.520Z,16.46
2023-02-24T00:04:31.366Z,15.34
2023-02-24T00:06:59.205Z,14.35
2023-02-24T00:09:29.324Z,14.98
2023-02-24T00:11:59.013Z,16.33
2023-02-24T00:14:30.761Z,16.66
2023-02-24T00:17:00.603Z,15.43
2023-02-24T00:19:33.340Z,14.45
2023-02-24T00:22:01.227Z,15.15
2023-02-24T00:24:28.091Z,16.47
2023-02-24T00:27:01.086Z,16.49
2023-02-24T00:29:29.387Z,15.25
2023-02-24T00:32:02.557Z,14.40
2023-02-24T00:34:31.417Z,15.30
2023-02-24T00:36:58.275Z,16.56
2023-02-24T00:39:34.549Z,16.32
2023-02-24T00:42:06.239Z,15.03
2023-02-24T00:44:35.693Z,14.63
2023-02-24T00:47:04.641Z,15.92
2023-02-24T00:49:32.193Z,16.64
2023-02-24T00:51:59.080Z,15.56
2023-02-24T00:54:28.489Z,14.53
2023-02-24T00:56:56.492Z,15.08
2023-02-24T00:59:23.667Z,16.52
2023-02-24T01:01:51.371Z,16.74
2023-02-24T01:04:19.402Z,15.51
2023-02-24T01:06:49.665Z,14.58
2023-02-24T01:09:20.390Z,15.35
2023-02-24T01:12:07.145Z,16.61
2023-02-24T01:14:35.543Z,16.16
2023-02-24T01:17:04.138Z,14.95
2023-02-24T01:19:32.315Z,14.52
2023-02-24T01:22:01.290Z,15.75
2023-02-24T01:24:31.230Z,16.48
2023-02-24T01:26:57.708Z,15.42
2023-02-24T01:29:26.978Z,14.37
2023-02-24T01:31:57.222Z,14.60
2023-02-24T01:34:27.392Z,15.99
2023-02-24T01:36:54.276Z,16.46
2023-02-24T01:39:21.218Z,15.31
2023-02-24T01:41:52.304Z,14.31
2023-02-24T01:44:21.748Z,14.75
2023-02-24T01:46:51.690Z,16.13
2023-02-24T01:49:39.229Z,16.21
2023-02-24T01:52:08.782Z,14.87
2023-02-24T01:54:42.282Z,14.19
2023-02-24T01:57:12.628Z,15.28
2023-02-24T01:59:39.203Z,16.32
2023-02-24T02:02:07.413Z,15.51
2023-02-24T02:04:39.356Z,14.38
2023-02-24T02:07:09.420Z,14.05
2023-02-24T02:09:37.655Z,15.28
2023-02-24T02:12:04.261Z,16.21
2023-02-24T02:14:31.633Z,15.50
2023-02-24T02:16:58.112Z,14.38
2023-02-24T02:19:59.209Z,14.16
2023-02-24T02:22:54.470Z,15.77
2023-02-24T02:25:41.342Z,15.97
2023-02-24T02:28:48.227Z,14.62
2023-02-24T02:32:03.072Z,14.36
2023-02-24T02:35:01.687Z,16.10
2023-02-24T02:37:34.574Z,15.73
2023-02-24T02:40:45.143Z,14.50
2023-02-24T02:43:23.968Z,14.34
2023-02-24T02:46:10.532Z,15.83
2023-02-24T02:48:48.430Z,16.20
2023-02-24T02:51:21.934Z,14.91
2023-02-24T02:54:04.121Z,14.15
2023-02-24T02:56:37.463Z,15.34
2023-02-24T02:59:04.810Z,16.14
2023-02-24T03:01:36.637Z,15.08
2023-02-24T03:04:06.562Z,14.15
2023-02-24T03:06:37.594Z,15.04
2023-02-24T03:09:18.793Z,16.33
2023-02-24T03:11:59.098Z,15.62
2023-02-24T03:14:32.552Z,14.35
2023-02-24T03:16:59.584Z,14.26
2023-02-24T03:19:32.573Z,15.64
2023-02-24T03:22:25.034Z,15.38
2023-02-24T03:24:52.943Z,14.01
2023-02-24T03:27:28.523Z,13.40
2023-02-24T03:30:06.347Z,14.70
2023-02-24T03:33:06.241Z,15.50
2023-02-24T03:35:41.627Z,14.15
2023-02-24T03:38:09.587Z,13.13
2023-02-24T03:40:39.629Z,13.41
2023-02-24T03:43:19.081Z,15.00
2023-02-24T03:45:49.341Z,15.25
2023-02-24T03:48:16.702Z,14.02
2023-02-24T03:50:43.712Z,13.06
2023-02-24T03:53:35.185Z,12.96
2023-02-24T03:56:16.202Z,14.65
2023-02-24T03:59:04.226Z,15.18
2023-02-24T04:01:57.344Z,13.86
2023-02-24T04:04:58.957Z,12.78
2023-02-24T04:07:37.053Z,13.08
2023-02-24T04:10:16.740Z,14.71
2023-02-24T04:13:18.168Z,14.92
2023-02-24T04:15:58.181Z,13.53
2023-02-24T04:18:29.213Z,12.71
2023-02-24T04:20:59.107Z,13.65
2023-02-24T04:23:31.067Z,15.02
2023-02-24T04:25:58.194Z,14.65
2023-02-24T04:28:25.487Z,13.49
2023-02-24T04:30:59.941Z,12.74
2023-02-24T04:33:27.182Z,13.70
2023-02-24T04:35:53.756Z,14.93
2023-02-24T04:38:20.883Z,14.25
2023-02-24T04:40:49.131Z,13.17
2023-02-24T04:43:16.310Z,12.82
2023-02-24T04:45:43.593Z,14.16
2023-02-24T04:48:13.644Z,14.62
2023-02-24T04:50:43.232Z,13.54
2023-02-24T04:53:12.306Z,12.68
2023-02-24T04:55:42.781Z,13.43
2023-02-24T04:58:19.546Z,14.81
2023-02-24T05:00:52.008Z,14.55
2023-02-24T05:03:20.830Z,13.36
2023-02-24T05:05:56.066Z,12.87
2023-02-24T05:08:24.514Z,14.19
2023-02-24T05:10:51.629Z,14.94
2023-02-24T05:13:28.264Z,13.91
2023-02-24T05:15:58.672Z,12.86
2023-02-24T05:18:28.928Z,13.47
2023-02-24T05:21:15.170Z,14.73
2023-02-24T05:23:45.730Z,13.75
2023-02-24T05:26:17.815Z,12.73
2023-02-24T05:28:51.605Z,12.90
2023-02-24T05:31:23.233Z,14.41
2023-02-24T05:34:00.851Z,14.35
2023-02-24T05:36:31.591Z,13.10
2023-02-24T05:38:58.757Z,12.60
2023-02-24T05:41:35.517Z,13.86
2023-02-24T05:44:07.888Z,14.50
2023-02-24T05:46:40.203Z,13.42
2023-02-24T05:49:22.512Z,12.68
2023-02-24T05:51:55.468Z,13.78
2023-02-24T05:54:31.779Z,14.73
2023-02-24T05:57:03.447Z,13.92
2023-02-24T05:59:34.164Z,12.85
2023-02-24T06:02:10.720Z,13.29
2023-02-24T06:04:44.945Z,14.53
2023-02-24T06:07:18.262Z,14.01
2023-02-24T06:09:49.241Z,12.89
2023-02-24T06:12:17.710Z,12.50
2023-02-24T06:14:44.699Z,13.69
2023-02-24T06:17:11.888Z,14.40
2023-02-24T06:19:40.608Z,13.42
2023-02-24T06:22:11.093Z,12.44
2023-02-24T06:24:38.715Z,12.37
2023-02-24T06:27:16.889Z,13.69
2023-02-24T06:29:51.681Z,14.30
2023-02-24T06:32:21.288Z,13.20
2023-02-24T06:34:47.916Z,12.26
2023-02-24T06:37:15.776Z,12.62
2023-02-24T06:39:42.791Z,13.91
2023-02-24T06:42:11.155Z,13.77
2023-02-24T06:44:40.146Z,12.66
2023-02-24T06:47:12.451Z,12.17
2023-02-24T06:49:39.032Z,13.35
2023-02-24T06:52:05.677Z,14.11
2023-02-24T06:54:35.088Z,13.22
2023-02-24T06:57:05.731Z,12.24
2023-02-24T06:59:32.373Z,12.28
2023-02-24T07:02:01.306Z,13.64
2023-02-24T07:04:29.060Z,14.25
2023-02-24T07:07:02.189Z,13.25
2023-02-24T07:09:30.082Z,12.32
2023-02-24T07:11:58.137Z,12.89
2023-02-24T07:14:28.597Z,14.16
2023-02-24T07:16:57.159Z,13.80
2023-02-24T07:19:28.669Z,12.72
2023-02-24T07:22:01.496Z,11.88
2023-02-24T07:24:38.539Z,11.79
2023-02-24T07:27:08.767Z,13.14
2023-02-24T07:29:37.142Z,12.94
2023-02-24T07:32:07.903Z,11.95
2023-02-24T07:34:39.023Z,11.26
2023-02-24T07:37:07.219Z,12.13
2023-02-24T07:39:36.346Z,13.26
2023-02-24T07:42:03.587Z,12.60
2023-02-24T07:44:30.298Z,11.59
2023-02-24T07:46:58.721Z,11.15
2023-02-24T07:49:27.271Z,12.34
2023-02-24T07:51:57.111Z,13.11
2023-02-24T07:54:29.236Z,12.16
2023-02-24T07:56:58.284Z,11.12
2023-02-24T07:59:33.921Z,10.72
2023-02-24T08:02:03.940Z,11.88
2023-02-24T08:04:32.293Z,11.54
2023-02-24T08:07:02.084Z,10.61
2023-02-24T08:09:45.826Z,9.91
2023-02-24T08:12:23.341Z,10.25
2023-02-24T08:14:52.582Z,11.80
2023-02-24T08:17:22.733Z,11.47
2023-02-24T08:20:11.391Z,10.43
2023-02-24T08:22:43.845Z,9.59
2023-02-24T08:25:17.812Z,9.02
2023-02-24T08:28:06.689Z,9.10
2023-02-24T08:30:39.440Z,10.59
2023-02-24T08:33:09.880Z,10.07
2023-02-24T08:35:43.713Z,9.23
2023-02-24T08:38:17.323Z,8.58
2023-02-24T08:40:51.324Z,8.08
2023-02-24T08:43:23.381Z,7.98
2023-02-24T08:46:13.064Z,9.53
2023-02-24T08:48:47.151Z,9.86
2023-02-24T08:51:33.798Z,8.97
2023-02-24T08:54:10.218Z,8.24
2023-02-24T08:56:42.870Z,8.31
2023-02-24T08:59:36.847Z,9.94
2023-02-24T09:02:28.698Z,10.46
2023-02-24T09:05:11.261Z,9.41
2023-02-24T09:07:41.458Z,8.66
2023-02-24T09:10:18.050Z,8.20
2023-02-24T09:12:45.099Z,8.50
2023-02-24T09:15:14.766Z,10.10
2023-02-24T09:17:44.295Z,9.94
2023-02-24T09:20:26.490Z,9.11
2023-02-24T09:23:03.009Z,8.47
2023-02-24T09:25:43.401Z,8.70
2023-02-24T09:28:16.160Z,10.47
2023-02-24T09:30:53.051Z,10.45
2023-02-24T09:33:40.829Z,9.57
2023-02-24T09:36:10.207Z,8.90
2023-02-24T09:39:06.248Z,8.47
2023-02-24T09:41:56.256Z,8.06
2023-02-24T09:44:43.691Z,8.68
2023-02-24T09:47:51.145Z,10.18
2023-02-24T09:50:46.893Z,9.35
2023-02-24T09:53:16.654Z,8.58
2023-02-24T09:55:59.642Z,8.08
2023-02-24T09:58:49.183Z,7.72
2023-02-24T10:01:42.102Z,7.43
2023-02-24T10:04:20.746Z,7.17
2023-02-24T10:06:56.961Z,8.06
2023-02-24T10:09:35.522Z,9.51
2023-02-24T10:12:30.427Z,8.93
2023-02-24T10:15:18.589Z,8.14
2023-02-24T10:17:58.337Z,7.68
2023-02-24T10:20:38.787Z,7.39
2023-02-24T10:23:34.837Z,7.30
2023-02-24T10:26:31.291Z,8.99
2023-02-24T10:29:46.023Z,9.11
2023-02-24T10:32:16.351Z,8.33
2023-02-24T10:34:44.148Z,7.96
2023-02-24T10:37:27.619Z,7.68
2023-02-24T10:40:08.990Z,7.42
2023-02-24T10:42:45.065Z,7.21
2023-02-24T10:45:17.520Z,7.03
2023-02-24T10:48:12.644Z,6.90
2023-02-24T10:50:55.340Z,6.79
2023-02-24T10:53:34.436Z,6.81
2023-02-24T10:56:41.202Z,8.37
2023-02-24T10:59:38.500Z,8.70
2023-02-24T11:02:36.802Z,8.00
2023-02-24T11:05:26.617Z,7.55
2023-02-24T11:08:38.099Z,7.28
2023-02-24T11:11:25.309Z,7.06
2023-02-24T11:14:11.849Z,6.92
2023-02-24T11:17:12.762Z,8.06
2023-02-24T11:19:44.036Z,9.64
2023-02-24T11:22:20.125Z,9.00
2023-02-24T11:24:48.153Z,8.35
2023-02-24T11:27:21.236Z,7.93
2023-02-24T11:30:14.513Z,7.64
2023-02-24T11:33:11.718Z,7.42
2023-02-24T11:36:02.261Z,7.26
2023-02-24T11:39:18.905Z,7.18
2023-02-24T11:41:52.689Z,9.04
2023-02-24T11:44:35.879Z,9.47
2023-02-24T11:47:09.096Z,8.71
2023-02-24T11:50:02.637Z,8.17
2023-02-24T11:52:38.161Z,7.79
2023-02-24T11:55:14.728Z,7.56
2023-02-24T11:57:48.142Z,7.37
2023-02-24T12:00:28.913Z,7.21
2023-02-24T12:03:28.819Z,7.05
2023-02-24T12:06:05.568Z,7.38
2023-02-24T12:08:35.713Z,9.24
2023-02-24T12:11:33.428Z,9.42
2023-02-24T12:14:22.508Z,8.55
2023-02-24T12:17:00.023Z,7.98
2023-02-24T12:19:47.689Z,7.63
2023-02-24T12:22:15.619Z,7.37
2023-02-24T12:24:49.229Z,7.20
2023-02-24T12:27:50.488Z,7.06
2023-02-24T12:30:38.261Z,6.92
2023-02-24T12:33:37.646Z,7.81
2023-02-24T12:36:48.141Z,9.67
2023-02-24T12:39:31.001Z,9.09
2023-02-24T12:42:44.438Z,8.55
2023-02-24T12:45:26.544Z,8.21
2023-02-24T12:48:26.587Z,8.07
2023-02-24T12:51:10.347Z,8.00
2023-02-24T12:53:40.961Z,7.93
2023-02-24T12:56:27.735Z,7.86
2023-02-24T12:59:01.593Z,7.74
2023-02-24T13:01:48.162Z,7.65
2023-02-24T13:05:04.840Z,7.57
2023-02-24T13:08:00.836Z,7.47
2023-02-24T13:11:11.378Z,7.38
2023-02-24T13:14:10.112Z,7.30
2023-02-24T13:16:36.910Z,7.22
2023-02-24T13:19:25.215Z,7.16
2023-02-24T13:22:06.228Z,7.08
2023-02-24T13:24:33.949Z,7.05
2023-02-24T13:27:16.348Z,7.01
2023-02-24T13:29:48.786Z,6.96
2023-02-24T13:32:40.949Z,6.94
2023-02-24T13:35:17.356Z,6.88
2023-02-24T13:37:46.582Z,6.85
2023-02-24T13:40:16.232Z,6.81
2023-02-24T13:42:56.495Z,6.79
2023-02-24T13:45:30.512Z,6.74
2023-02-24T13:48:56.816Z,6.70
2023-02-24T13:52:20.397Z,6.65
2023-02-24T13:55:23.263Z,6.60
2023-02-24T13:57:58.758Z,6.55
2023-02-24T14:00:54.749Z,6.51
2023-02-24T14:03:25.372Z,6.48
2023-02-24T14:05:52.123Z,6.44
2023-02-24T14:08:35.725Z,6.43
2023-02-24T14:11:03.505Z,6.40
2023-02-24T14:13:33.523Z,6.39
2023-02-24T14:16:06.558Z,6.92
2023-02-24T14:18:33.430Z,8.83
2023-02-24T14:21:01.023Z,9.09
2023-02-24T14:23:34.016Z,8.43
2023-02-24T14:26:13.334Z,7.97
2023-02-24T14:28:40.099Z,7.66
2023-02-24T14:31:15.756Z,7.46
2023-02-24T14:33:44.969Z,7.30
2023-02-24T14:36:19.978Z,7.17
2023-02-24T14:38:47.218Z,7.05
2023-02-24T14:41:25.184Z,6.96
2023-02-24T14:43:52.378Z,6.86
2023-02-24T14:46:20.127Z,6.78
2023-02-24T14:48:53.665Z,6.69
2023-02-24T14:51:35.023Z,6.62
2023-02-24T14:54:07.751Z,7.00
2023-02-24T14:56:35.564Z,8.87
2023-02-24T14:59:15.873Z,9.48
2023-02-24T15:01:48.072Z,8.74
2023-02-24T15:04:44.261Z,8.17
2023-02-24T15:07:20.839Z,7.78
2023-02-24T15:09:50.111Z,7.54
2023-02-24T15:12:26.976Z,7.36
2023-02-24T15:15:01.387Z,7.22
2023-02-24T15:17:29.105Z,7.09
2023-02-24T15:19:55.964Z,6.98
2023-02-24T15:22:27.431Z,7.03
2023-02-24T15:25:12.951Z,8.51
2023-02-24T15:28:27.505Z,9.82
2023-02-24T15:31:01.961Z,8.94
2023-02-24T15:33:42.447Z,8.34
2023-02-24T15:36:20.016Z,7.93
2023-02-24T15:38:51.528Z,7.66
2023-02-24T15:41:20.136Z,7.46
2023-02-24T15:43:52.457Z,7.29
2023-02-24T15:46:24.099Z,7.13
2023-02-24T15:48:53.230Z,7.01
2023-02-24T15:51:41.365Z,7.77
2023-02-24T15:54:27.215Z,9.45
2023-02-24T15:56:57.660Z,8.90
2023-02-24T15:59:24.631Z,8.26
2023-02-24T16:01:52.147Z,7.84
2023-02-24T16:04:20.453Z,7.54
2023-02-24T16:06:54.335Z,7.32
2023-02-24T16:09:40.986Z,7.31
2023-02-24T16:12:16.098Z,9.03
2023-02-24T16:14:49.558Z,10.10
2023-02-24T16:17:35.907Z,9.32
2023-02-24T16:20:08.438Z,8.54
2023-02-24T16:22:35.651Z,8.08
2023-02-24T16:25:04.443Z,7.76
2023-02-24T16:27:31.343Z,7.90
2023-02-24T16:29:59.495Z,9.58
2023-02-24T16:32:26.478Z,10.26
2023-02-24T16:34:53.431Z,9.47
2023-02-24T16:37:24.049Z,8.77
2023-02-24T16:39:50.840Z,8.28
2023-02-24T16:42:17.678Z,7.93
2023-02-24T16:44:48.141Z,7.72
2023-02-24T16:47:22.929Z,8.90
2023-02-24T16:49:50.274Z,10.04
2023-02-24T16:52:18.647Z,9.35
2023-02-24T16:54:47.676Z,8.65
2023-02-24T16:57:15.495Z,8.14
2023-02-24T16:59:42.169Z,7.80
2023-02-24T17:02:20.538Z,7.58
2023-02-24T17:04:47.919Z,8.74
2023-02-24T17:07:15.550Z,10.06
2023-02-24T17:09:42.314Z,9.49
2023-02-24T17:12:21.622Z,8.76
2023-02-24T17:14:48.808Z,8.18
2023-02-24T17:17:15.402Z,7.80
2023-02-24T17:19:42.178Z,7.55
2023-02-24T17:22:09.651Z,8.49
2023-02-24T17:24:36.300Z,9.95
2023-02-24T17:27:03.652Z,9.52
2023-02-24T17:29:30.302Z,8.73
2023-02-24T17:31:57.308Z,8.16
2023-02-24T17:34:24.156Z,7.77
2023-02-24T17:36:50.898Z,7.88
2023-02-24T17:39:17.672Z,9.57
2023-02-24T17:41:44.715Z,10.35
2023-02-24T17:44:11.274Z,9.51
2023-02-24T17:46:38.049Z,8.74
2023-02-24T17:49:07.773Z,8.22
2023-02-24T17:51:35.508Z,7.82
2023-02-24T17:54:02.308Z,8.29
2023-02-24T17:56:29.016Z,9.94
2023-02-24T17:59:01.197Z,9.98
2023-02-24T18:01:28.057Z,9.07
2023-02-24T18:03:56.804Z,8.39
2023-02-24T18:06:24.441Z,7.97
2023-02-24T18:08:51.280Z,8.93
2023-02-24T18:11:19.370Z,10.46
2023-02-24T18:13:50.141Z,10.18
2023-02-24T18:16:16.887Z,9.28
2023-02-24T18:18:43.730Z,8.64
2023-02-24T18:21:10.634Z,8.19
2023-02-24T18:23:40.890Z,8.35
2023-02-24T18:26:11.462Z,10.04
2023-02-24T18:28:38.783Z,10.67
2023-02-24T18:31:18.974Z,9.79
2023-02-24T18:33:46.797Z,8.99
2023-02-24T18:36:14.245Z,8.45
2023-02-24T18:38:41.828Z,8.39
2023-02-24T18:41:13.664Z,9.83
2023-02-24T18:43:40.477Z,10.72
2023-02-24T18:46:12.494Z,9.89
2023-02-24T18:48:43.924Z,9.07
2023-02-24T18:51:12.887Z,8.47
2023-02-24T18:53:39.963Z,8.28
2023-02-24T18:56:10.317Z,9.66
2023-02-24T18:58:38.010Z,10.52
2023-02-24T19:01:26.887Z,9.65
2023-02-24T19:03:54.951Z,8.77
2023-02-24T19:06:26.141Z,8.24
2023-02-24T19:09:08.967Z,8.97
2023-02-24T19:11:38.514Z,10.48
2023-02-24T19:14:11.883Z,9.95
2023-02-24T19:16:41.661Z,9.00
2023-02-24T19:19:14.235Z,8.37
2023-02-24T19:21:44.661Z,8.86
2023-02-24T19:24:13.077Z,10.42
2023-02-24T19:26:45.306Z,10.21
2023-02-24T19:29:12.198Z,9.26
2023-02-24T19:31:42.155Z,8.53
2023-02-24T19:34:13.056Z,8.70
2023-02-24T19:36:40.645Z,10.27
2023-02-24T19:39:13.808Z,10.92
2023-02-24T19:41:40.945Z,9.93
2023-02-24T19:44:07.818Z,9.08
2023-02-24T19:46:35.882Z,8.53
2023-02-24T19:49:03.778Z,9.42
2023-02-24T19:51:33.674Z,10.83
2023-02-24T19:54:05.636Z,10.41
2023-02-24T19:56:35.737Z,9.42
2023-02-24T19:59:06.214Z,8.71
2023-02-24T20:01:33.476Z,8.58
2023-02-24T20:04:02.496Z,10.13
2023-02-24T20:06:35.005Z,10.81
2023-02-24T20:09:04.904Z,9.88
2023-02-24T20:11:35.488Z,9.03
2023-02-24T20:14:02.328Z,9.22
2023-02-24T20:16:33.980Z,10.66
2023-02-24T20:19:01.600Z,10.45
2023-02-24T20:21:29.610Z,9.45
2023-02-24T20:24:01.320Z,9.03
2023-02-24T20:26:29.030Z,10.37
2023-02-24T20:28:56.670Z,10.89
2023-02-24T20:31:23.925Z,9.85
2023-02-24T20:33:51.728Z,8.98
2023-02-24T20:36:26.865Z,9.33
2023-02-24T20:38:54.434Z,10.77
2023-02-24T20:41:21.677Z,10.42
2023-02-24T20:43:48.956Z,9.39
2023-02-24T20:46:23.800Z,8.75
2023-02-24T20:48:56.150Z,9.77
2023-02-24T20:51:23.821Z,10.51
2023-02-24T20:53:57.232Z,9.56
2023-02-24T20:56:27.561Z,8.71
2023-02-24T20:59:00.973Z,9.28
2023-02-24T21:01:29.980Z,10.72
2023-02-24T21:03:57.382Z,10.27
2023-02-24T21:06:24.679Z,9.23
2023-02-24T21:08:52.763Z,8.47
2023-02-24T21:11:20.558Z,9.06
2023-02-24T21:13:49.390Z,10.36
2023-02-24T21:16:18.808Z,9.87
2023-02-24T21:18:48.103Z,8.87
2023-02-24T21:21:16.157Z,8.43
2023-02-24T21:23:43.473Z,9.73
2023-02-24T21:26:10.611Z,10.61
2023-02-24T21:28:37.621Z,9.71
2023-02-24T21:31:14.012Z,8.80
2023-02-24T21:33:40.903Z,8.29
2023-02-24T21:36:13.728Z,9.50
2023-02-24T21:38:40.784Z,10.49
2023-02-24T21:41:15.461Z,9.63
2023-02-24T21:43:43.596Z,8.67
2023-02-24T21:46:11.704Z,8.37
2023-02-24T21:48:40.008Z,9.76
2023-02-24T21:51:10.428Z,10.12
2023-02-24T21:53:38.585Z,9.13
2023-02-24T21:56:15.677Z,8.29
2023-02-24T21:58:56.545Z,8.47
2023-02-24T22:01:29.637Z,9.98
2023-02-24T22:03:59.426Z,9.43
2023-02-24T22:06:31.025Z,8.47
2023-02-24T22:08:59.756Z,8.48
2023-02-24T22:11:26.649Z,9.95
2023-02-24T22:13:53.141Z,10.37
2023-02-24T22:16:24.056Z,9.31
2023-02-24T22:18:52.550Z,8.36
2023-02-24T22:21:23.017Z,8.52
2023-02-24T22:23:52.392Z,10.04
2023-02-24T22:26:22.199Z,10.12
2023-02-24T22:28:49.066Z,9.05
2023-02-24T22:31:20.519Z,8.25
2023-02-24T22:33:48.286Z,8.87
2023-02-24T22:36:20.005Z,10.25
2023-02-24T22:38:46.983Z,9.72
2023-02-24T22:41:18.007Z,8.74
2023-02-24T22:43:45.477Z,8.08
2023-02-24T22:46:20.058Z,8.96
2023-02-24T22:48:46.992Z,10.45
2023-02-24T22:51:14.360Z,9.97
2023-02-24T22:53:45.942Z,8.93
2023-02-24T22:56:15.937Z,8.21
2023-02-24T22:58:42.819Z,8.86
2023-02-24T23:01:12.077Z,10.34
2023-02-24T23:03:39.576Z,10.02
2023-02-24T23:06:12.722Z,8.96
2023-02-24T23:08:41.590Z,8.28
2023-02-24T23:11:14.843Z,9.27
2023-02-24T23:13:44.033Z,10.63
2023-02-24T23:16:16.215Z,10.10
2023-02-24T23:18:50.011Z,9.04
2023-02-24T23:21:23.327Z,8.44
2023-02-24T23:23:56.081Z,9.61
2023-02-24T23:26:27.769Z,10.65
2023-02-24T23:28:54.578Z,9.84
2023-02-24T23:31:21.557Z,8.88
2023-02-24T23:33:49.789Z,8.66
2023-02-24T23:36:17.092Z,10.09
2023-02-24T23:38:44.810Z,10.45
2023-02-24T23:41:11.892Z,9.42
2023-02-24T23:43:38.636Z,8.61
2023-02-24T23:46:11.395Z,9.12
2023-02-24T23:48:38.734Z,10.58
2023-02-24T23:51:10.592Z,10.35
2023-02-24T23:53:42.972Z,9.27
2023-02-24T23:56:14.458Z,8.55
2023-02-24T23:58:41.060Z,9.44
